Aviation Digital Data Service (ADDS)

Output produced by METARs form (0855 UTC 26 May 2019)
found at http://www.aviationweather.gov/metar/data/
 
TAF MGSJ 260500Z 2606/2706 00000KT 9999 SCT016 TX33/2620Z TN24/2612Z 
     TEMPO 2610/2612 7000 TSRA FEW025CB 
     BECMG 2615/2617 18008KT SCT018 
     TEMPO 2620/2624 8000 VCTSRA SCT020TCU FEW025CB 
     BECMG 2700/2702 00000KT SCT016